createdAt,value
2017-12-23T00:01:47.027Z,23.57
2017-12-23T00:04:15.423Z,22.87
2017-12-23T00:06:44.012Z,23.50
2017-12-23T00:09:12.470Z,23.90
2017-12-23T00:11:40.831Z,23.13
2017-12-23T00:14:09.943Z,24.03
2017-12-23T00:16:38.271Z,24.40
2017-12-23T00:19:06.651Z,24.57
2017-12-23T00:21:35.769Z,25.10
2017-12-23T00:24:04.170Z,26.10
2017-12-23T00:26:32.615Z,24.97
2017-12-23T00:29:01.702Z,24.20
2017-12-23T00:31:30.852Z,24.67
2017-12-23T00:33:59.188Z,25.60
2017-12-23T00:36:28.291Z,27.17
2017-12-23T00:38:57.528Z,25.20
2017-12-23T00:41:25.872Z,26.83
2017-12-23T00:43:54.978Z,26.67
2017-12-23T00:46:23.366Z,27.23
2017-12-23T00:48:51.714Z,26.40
2017-12-23T00:51:20.823Z,27.53
2017-12-23T00:53:49.916Z,28.73
2017-12-23T00:56:19.046Z,29.30
2017-12-23T00:58:47.429Z,28.27
2017-12-23T01:01:15.804Z,28.10
2017-12-23T01:03:44.286Z,29.03
2017-12-23T01:06:12.628Z,28.70
2017-12-23T01:08:41.737Z,27.57
2017-12-23T01:11:10.875Z,27.80
2017-12-23T01:13:39.464Z,29.00
2017-12-23T01:16:07.796Z,27.70
2017-12-23T01:18:36.908Z,28.53
2017-12-23T01:21:06.233Z,28.43
2017-12-23T01:23:34.601Z,28.10
2017-12-23T01:26:02.963Z,26.90
2017-12-23T01:28:31.363Z,28.43
2017-12-23T01:31:00.624Z,28.53
2017-12-23T01:33:28.976Z,29.53
2017-12-23T01:35:57.303Z,28.73
2017-12-23T01:38:26.416Z,27.63
2017-12-23T01:40:54.756Z,28.33
2017-12-23T01:43:23.096Z,29.13
2017-12-23T01:45:51.460Z,26.77
2017-12-23T01:48:31.643Z,24.07
2017-12-23T01:50:59.982Z,25.17
2017-12-23T01:53:28.330Z,23.73
2017-12-23T01:55:56.683Z,24.20
2017-12-23T01:58:25.033Z,23.10
2017-12-23T02:00:53.392Z,22.27
2017-12-23T02:03:22.488Z,23.67
2017-12-23T02:05:50.844Z,23.00
2017-12-23T02:08:19.208Z,21.63
2017-12-23T02:10:47.741Z,23.10
2017-12-23T02:13:16.842Z,22.77
2017-12-23T02:15:45.183Z,22.03
2017-12-23T02:18:13.510Z,21.80
2017-12-23T02:20:41.892Z,21.70
2017-12-23T02:23:10.240Z,23.90
2017-12-23T02:25:39.340Z,22.57
2017-12-23T02:28:07.725Z,22.57
2017-12-23T02:30:36.828Z,22.00
2017-12-23T02:33:05.208Z,20.93
2017-12-23T02:35:33.600Z,22.93
2017-12-23T02:38:01.989Z,22.73
2017-12-23T02:40:30.310Z,21.00
2017-12-23T02:42:58.855Z,22.33
2017-12-23T02:45:27.223Z,21.97
2017-12-23T02:47:55.561Z,21.57
2017-12-23T02:50:23.931Z,22.00
2017-12-23T02:52:53.043Z,22.73
2017-12-23T02:55:22.139Z,21.77
2017-12-23T02:57:51.247Z,21.87
2017-12-23T03:00:19.588Z,22.63
2017-12-23T03:02:47.942Z,22.83
2017-12-23T03:05:16.290Z,22.63
2017-12-23T03:07:44.624Z,23.33
2017-12-23T03:10:12.967Z,23.03
2017-12-23T03:12:41.303Z,23.13
2017-12-23T03:15:10.420Z,21.43
2017-12-23T03:17:38.763Z,22.63
2017-12-23T03:20:07.245Z,23.50
2017-12-23T03:22:35.602Z,22.67
2017-12-23T03:25:03.945Z,21.87
2017-12-23T03:27:32.295Z,21.60
2017-12-23T03:30:01.429Z,21.13
2017-12-23T03:32:29.772Z,24.10
2017-12-23T03:34:58.874Z,21.90
2017-12-23T03:37:27.281Z,24.20
2017-12-23T03:39:55.644Z,23.80
2017-12-23T03:42:23.979Z,22.87
2017-12-23T03:44:52.357Z,22.53
2017-12-23T03:47:20.698Z,24.27
2017-12-23T03:49:49.035Z,23.70
2017-12-23T03:52:18.146Z,23.77
2017-12-23T03:54:46.481Z,23.23
2017-12-23T03:57:14.948Z,22.87
2017-12-23T03:59:43.312Z,23.60
2017-12-23T04:02:11.671Z,24.33
2017-12-23T04:04:40.033Z,20.70
2017-12-23T04:07:08.369Z,22.03
2017-12-23T04:09:36.734Z,23.87
2017-12-23T04:12:05.063Z,22.53
2017-12-23T04:14:34.167Z,22.47
2017-12-23T04:17:02.619Z,21.00
2017-12-23T04:19:30.952Z,22.23
2017-12-23T04:21:59.323Z,22.70
2017-12-23T04:24:27.751Z,21.93
2017-12-23T04:26:56.176Z,22.07
2017-12-23T04:29:24.523Z,20.73
2017-12-23T04:31:52.892Z,23.80
2017-12-23T04:34:21.624Z,21.27
2017-12-23T04:36:49.982Z,21.97
2017-12-23T04:39:18.343Z,21.70
2017-12-23T04:41:47.487Z,22.20
2017-12-23T04:44:15.854Z,20.50
2017-12-23T04:46:44.207Z,20.50
2017-12-23T04:49:13.320Z,18.00
2017-12-23T04:51:41.719Z,18.63
2017-12-23T04:54:10.093Z,16.20
2017-12-23T04:56:38.432Z,15.63
2017-12-23T04:59:07.060Z,13.43
2017-12-23T05:01:35.429Z,13.30
2017-12-23T05:04:03.793Z,12.90
2017-12-23T05:06:32.185Z,12.67
2017-12-23T05:09:00.529Z,13.83
2017-12-23T05:11:29.642Z,12.50
2017-12-23T05:13:58.682Z,11.43
2017-12-23T05:16:27.177Z,10.93
2017-12-23T05:18:55.503Z,12.80
2017-12-23T05:21:23.843Z,11.67
2017-12-23T05:23:52.266Z,13.10
2017-12-23T05:26:20.628Z,13.43
2017-12-23T05:28:48.991Z,12.30
2017-12-23T05:31:18.165Z,13.80
2017-12-23T05:33:46.494Z,12.93
2017-12-23T05:36:14.876Z,13.23
2017-12-23T05:38:43.313Z,12.73
2017-12-23T05:41:11.689Z,13.47
2017-12-23T05:43:40.033Z,14.90
2017-12-23T05:46:08.456Z,14.33
2017-12-23T05:48:36.780Z,15.40
2017-12-23T05:51:05.125Z,14.43
2017-12-23T05:53:34.232Z,14.27
2017-12-23T05:56:02.578Z,14.77
2017-12-23T05:58:30.948Z,15.43
2017-12-23T06:00:59.302Z,14.93
2017-12-23T06:03:27.778Z,17.10
2017-12-23T06:05:56.147Z,16.63
2017-12-23T06:08:24.483Z,15.30
2017-12-23T06:10:52.851Z,15.90
2017-12-23T06:13:21.187Z,15.77
2017-12-23T06:15:49.520Z,16.57
2017-12-23T06:18:18.764Z,16.63
2017-12-23T06:20:47.106Z,17.33
2017-12-23T06:23:16.322Z,16.87
2017-12-23T06:25:44.671Z,16.67
2017-12-23T06:28:13.806Z,16.87
2017-12-23T06:30:42.143Z,17.00
2017-12-23T06:33:10.575Z,17.83
2017-12-23T06:35:38.948Z,16.43
2017-12-23T06:38:07.296Z,16.43
2017-12-23T06:40:36.417Z,15.97
2017-12-23T06:43:04.803Z,17.07
2017-12-23T06:45:33.148Z,15.73
2017-12-23T06:48:02.267Z,16.43
2017-12-23T06:50:30.780Z,15.40
2017-12-23T06:52:59.130Z,15.37
2017-12-23T06:55:27.528Z,16.10
2017-12-23T06:57:55.900Z,14.80
2017-12-23T07:00:24.804Z,16.90
2017-12-23T07:02:53.134Z,14.57
2017-12-23T07:05:21.488Z,14.73
2017-12-23T07:07:49.823Z,13.87
2017-12-23T07:10:18.206Z,14.07
2017-12-23T07:12:47.260Z,13.90
2017-12-23T07:15:16.387Z,14.77
2017-12-23T07:17:44.777Z,13.53
2017-12-23T07:20:13.165Z,13.80
2017-12-23T07:22:41.501Z,13.70
2017-12-23T07:25:09.857Z,12.97
2017-12-23T07:27:38.209Z,12.40
2017-12-23T07:30:06.581Z,12.47
2017-12-23T07:32:34.928Z,11.73
2017-12-23T07:35:03.303Z,12.63
2017-12-23T07:37:32.407Z,12.37
2017-12-23T07:40:01.613Z,11.63
2017-12-23T07:42:29.979Z,11.53
2017-12-23T07:44:59.071Z,11.70
2017-12-23T07:47:28.384Z,11.60
2017-12-23T07:49:57.468Z,11.13
2017-12-23T07:52:25.900Z,10.57
2017-12-23T07:54:54.241Z,10.90
2017-12-23T07:57:22.586Z,11.53
2017-12-23T07:59:50.956Z,9.40
2017-12-23T08:02:19.319Z,11.33
2017-12-23T08:04:47.694Z,11.97
2017-12-23T08:07:16.060Z,11.53
2017-12-23T08:09:44.394Z,11.10
2017-12-23T08:12:13.537Z,11.37
2017-12-23T08:14:41.968Z,10.70
2017-12-23T08:17:11.113Z,11.13
2017-12-23T08:19:39.462Z,10.70
2017-12-23T08:22:08.575Z,10.80
2017-12-23T08:24:36.945Z,10.43
2017-12-23T08:27:05.284Z,9.67
2017-12-23T08:29:33.634Z,9.67
2017-12-23T08:32:01.985Z,9.60
2017-12-23T08:34:30.375Z,10.03
2017-12-23T08:36:58.720Z,10.03
2017-12-23T08:39:27.943Z,9.13
2017-12-23T08:41:56.352Z,9.30
2017-12-23T08:44:24.810Z,9.00
2017-12-23T08:46:53.201Z,8.13
2017-12-23T08:49:21.542Z,8.93
2017-12-23T08:51:50.661Z,7.93
2017-12-23T08:54:19.058Z,8.70
2017-12-23T08:56:47.405Z,9.20
2017-12-23T08:59:16.538Z,7.93
2017-12-23T09:01:44.867Z,8.90
2017-12-23T09:04:13.988Z,7.87
2017-12-23T09:06:42.369Z,8.90
2017-12-23T09:09:10.709Z,7.70
2017-12-23T09:11:39.094Z,8.37
2017-12-23T09:14:07.533Z,7.87
2017-12-23T09:16:35.864Z,8.53
2017-12-23T09:19:05.120Z,9.17
2017-12-23T09:21:33.515Z,9.63
2017-12-23T09:24:01.864Z,8.87
2017-12-23T09:26:30.347Z,9.40
2017-12-23T09:28:58.699Z,9.20
2017-12-23T09:31:27.824Z,9.00
2017-12-23T09:33:56.206Z,8.97
2017-12-23T09:36:24.817Z,8.97
2017-12-23T09:38:53.127Z,9.73
2017-12-23T09:41:23.100Z,9.20
2017-12-23T09:43:51.652Z,9.00
2017-12-23T09:46:20.037Z,10.13
2017-12-23T09:48:48.401Z,10.10
2017-12-23T09:51:16.771Z,10.77
2017-12-23T09:53:45.114Z,9.60
2017-12-23T09:56:13.485Z,10.20
2017-12-23T09:58:42.558Z,10.23
2017-12-23T10:01:10.941Z,10.17
2017-12-23T10:03:39.338Z,10.30
2017-12-23T10:06:07.713Z,11.00
2017-12-23T10:08:36.072Z,10.67
2017-12-23T10:11:04.419Z,12.67
2017-12-23T10:13:33.560Z,11.27
2017-12-23T10:16:01.892Z,11.87
2017-12-23T10:18:30.231Z,11.57
2017-12-23T10:20:58.649Z,12.97
2017-12-23T10:23:27.757Z,12.93
2017-12-23T10:25:56.109Z,14.00
2017-12-23T10:28:25.328Z,13.27
2017-12-23T10:30:54.462Z,14.37
2017-12-23T10:33:23.511Z,13.37
2017-12-23T10:35:52.644Z,14.20
2017-12-23T10:38:21.016Z,12.57
2017-12-23T10:40:49.398Z,15.00
2017-12-23T10:43:17.772Z,13.50
2017-12-23T10:45:46.174Z,13.80
2017-12-23T10:48:14.736Z,14.37
2017-12-23T10:50:43.079Z,14.20
2017-12-23T10:53:12.233Z,13.00
2017-12-23T10:55:40.592Z,12.93
2017-12-23T10:58:08.927Z,14.23
2017-12-23T11:00:37.257Z,12.57
2017-12-23T11:03:05.639Z,13.03
2017-12-23T11:05:33.980Z,12.07
2017-12-23T11:08:02.339Z,13.03
2017-12-23T11:10:30.788Z,13.00
2017-12-23T11:12:59.137Z,14.27
2017-12-23T11:15:27.501Z,12.97
2017-12-23T11:17:55.917Z,13.77
2017-12-23T11:20:24.283Z,14.60
2017-12-23T11:22:52.645Z,14.50
2017-12-23T11:25:21.043Z,15.37
2017-12-23T11:27:49.418Z,15.87
2017-12-23T11:30:17.796Z,17.50
2017-12-23T11:32:46.146Z,17.80
2017-12-23T11:35:15.261Z,18.93
2017-12-23T11:37:43.633Z,18.73
2017-12-23T11:40:12.041Z,19.73
2017-12-23T11:42:40.497Z,20.37
2017-12-23T11:45:09.729Z,21.13
2017-12-23T11:47:38.079Z,22.13
2017-12-23T11:50:06.656Z,23.87
2017-12-23T11:52:35.752Z,24.83
2017-12-23T11:55:04.815Z,25.03
2017-12-23T11:57:33.370Z,25.73
2017-12-23T12:00:01.709Z,26.20
2017-12-23T12:02:30.087Z,28.13
2017-12-23T12:04:59.184Z,28.57
2017-12-23T12:07:27.565Z,27.77
2017-12-23T12:09:56.729Z,30.50
2017-12-23T12:12:25.077Z,32.33
2017-12-23T12:14:53.544Z,30.13
2017-12-23T12:17:21.890Z,32.33
2017-12-23T12:19:51.075Z,34.30
2017-12-23T12:22:19.437Z,33.73
2017-12-23T12:24:47.882Z,34.17
2017-12-23T12:27:16.244Z,34.53
2017-12-23T12:29:44.593Z,34.50
2017-12-23T12:32:13.735Z,34.03
2017-12-23T12:34:42.087Z,34.67
2017-12-23T12:37:10.435Z,34.20
2017-12-23T12:39:38.886Z,35.37
2017-12-23T12:42:07.223Z,33.77
2017-12-23T12:44:36.340Z,34.53
2017-12-23T12:47:04.676Z,35.67
2017-12-23T12:49:33.014Z,33.13
2017-12-23T12:52:01.360Z,34.60
2017-12-23T12:54:29.709Z,32.67
2017-12-23T12:56:58.084Z,34.33
2017-12-23T12:59:26.440Z,34.50
2017-12-23T13:01:54.771Z,34.03
2017-12-23T13:04:23.139Z,33.20
2017-12-23T13:06:52.243Z,33.40
2017-12-23T13:09:21.381Z,34.30
2017-12-23T13:11:49.724Z,35.40
2017-12-23T13:14:18.078Z,32.90
2017-12-23T13:16:46.504Z,32.13
2017-12-23T13:19:14.845Z,32.83
2017-12-23T13:21:43.222Z,32.10
2017-12-23T13:24:11.568Z,32.33
2017-12-23T13:26:39.913Z,33.03
2017-12-23T13:29:08.273Z,30.60
2017-12-23T13:31:37.375Z,31.97
2017-12-23T13:34:05.736Z,30.63
2017-12-23T13:36:34.938Z,30.63
2017-12-23T13:39:04.061Z,30.77
2017-12-23T13:41:32.578Z,30.30
2017-12-23T13:44:00.925Z,30.17
2017-12-23T13:46:29.268Z,29.73
2017-12-23T13:48:58.389Z,29.77
2017-12-23T13:51:26.747Z,29.10
2017-12-23T13:53:55.079Z,29.77
2017-12-23T13:56:23.440Z,28.87
2017-12-23T13:58:51.810Z,28.70
2017-12-23T14:01:20.216Z,27.63
2017-12-23T14:03:49.492Z,26.57
2017-12-23T14:06:17.880Z,27.67
2017-12-23T14:08:46.231Z,26.73
2017-12-23T14:11:14.597Z,26.17
2017-12-23T14:13:43.720Z,25.80
2017-12-23T14:16:12.088Z,26.23
2017-12-23T14:18:40.452Z,26.10
2017-12-23T14:21:09.572Z,23.70
2017-12-23T14:23:37.920Z,25.20
2017-12-23T14:26:06.256Z,23.43
2017-12-23T14:28:34.610Z,24.00
2017-12-23T14:31:03.008Z,24.17
2017-12-23T14:33:31.406Z,23.83
2017-12-23T14:35:59.764Z,23.23
2017-12-23T14:38:28.141Z,21.50
2017-12-23T14:40:56.490Z,21.90
2017-12-23T14:43:24.979Z,21.27
2017-12-23T14:45:53.402Z,23.33
2017-12-23T14:48:21.861Z,22.93
2017-12-23T14:50:50.278Z,21.10
2017-12-23T14:53:18.630Z,21.20
2017-12-23T14:55:47.076Z,21.07
2017-12-23T14:58:15.449Z,20.93
2017-12-23T15:00:43.908Z,22.13
2017-12-23T15:03:12.266Z,21.97
2017-12-23T15:05:41.516Z,21.60
2017-12-23T15:08:10.653Z,21.40
2017-12-23T15:10:39.025Z,21.00
2017-12-23T15:13:07.372Z,21.67
2017-12-23T15:15:35.710Z,21.53
2017-12-23T15:18:04.058Z,21.90
2017-12-23T15:20:32.395Z,21.27
2017-12-23T15:23:01.541Z,21.30
2017-12-23T15:25:29.888Z,22.10
2017-12-23T15:27:58.242Z,22.03
2017-12-23T15:30:26.594Z,21.33
2017-12-23T15:32:55.055Z,22.80
2017-12-23T15:35:23.396Z,22.73
2017-12-23T15:37:51.874Z,22.50
2017-12-23T15:40:20.179Z,21.47
2017-12-23T15:42:48.529Z,22.10
2017-12-23T15:45:17.630Z,21.63
2017-12-23T15:47:46.110Z,22.27
2017-12-23T15:50:15.203Z,21.07
2017-12-23T15:52:44.328Z,21.70
2017-12-23T15:55:12.676Z,21.10
2017-12-23T15:57:41.786Z,21.80
2017-12-23T16:00:10.137Z,22.10
2017-12-23T16:02:38.492Z,22.47
2017-12-23T16:05:06.868Z,22.13
2017-12-23T16:07:35.216Z,19.83
2017-12-23T16:10:03.574Z,21.20
2017-12-23T16:12:32.808Z,21.83
2017-12-23T16:15:01.162Z,21.50
2017-12-23T16:17:30.482Z,21.27
2017-12-23T16:19:58.845Z,23.13
2017-12-23T16:22:27.191Z,20.37
2017-12-23T16:24:55.603Z,22.03
2017-12-23T16:27:23.953Z,20.80
2017-12-23T16:29:52.305Z,21.13
2017-12-23T16:32:20.755Z,22.03
2017-12-23T16:34:49.168Z,22.13
2017-12-23T16:37:17.501Z,22.67
2017-12-23T16:39:45.852Z,21.70
2017-12-23T16:42:14.983Z,23.40
2017-12-23T16:44:43.328Z,22.37
2017-12-23T16:47:11.766Z,22.27
2017-12-23T16:49:40.280Z,22.37
2017-12-23T16:52:09.457Z,22.23
2017-12-23T16:54:37.865Z,23.23
2017-12-23T16:57:07.001Z,22.83
2017-12-23T16:59:35.378Z,22.73
2017-12-23T17:02:03.755Z,21.70
2017-12-23T17:04:32.141Z,21.67
2017-12-23T17:07:00.473Z,21.70
2017-12-23T17:09:29.722Z,22.33
2017-12-23T17:11:58.048Z,21.93
2017-12-23T17:14:26.471Z,22.83
2017-12-23T17:16:54.833Z,22.43
2017-12-23T17:19:23.234Z,21.33
2017-12-23T17:21:51.581Z,22.20
2017-12-23T17:24:20.829Z,22.43
2017-12-23T17:26:49.155Z,22.07
2017-12-23T17:29:30.184Z,22.20
2017-12-23T17:31:58.559Z,22.60
2017-12-23T17:34:26.896Z,22.23
2017-12-23T17:36:56.013Z,22.60
2017-12-23T17:39:24.352Z,23.73
2017-12-23T17:41:52.703Z,23.00
2017-12-23T17:44:21.091Z,21.57
2017-12-23T17:46:49.436Z,23.20
2017-12-23T17:49:17.794Z,23.47
2017-12-23T17:51:46.139Z,25.40
2017-12-23T17:54:14.575Z,24.00
2017-12-23T17:56:42.939Z,24.07
2017-12-23T17:59:11.276Z,23.00
2017-12-23T18:01:39.697Z,23.20
2017-12-23T18:04:08.053Z,24.70
2017-12-23T18:06:37.174Z,23.40
2017-12-23T18:09:05.541Z,24.33
2017-12-23T18:11:34.652Z,24.83
2017-12-23T18:14:02.999Z,23.07
2017-12-23T18:16:32.126Z,21.77
2017-12-23T18:19:00.491Z,22.17
2017-12-23T18:21:29.652Z,23.40
2017-12-23T18:23:58.116Z,24.13
2017-12-23T18:26:26.452Z,24.07
2017-12-23T18:28:54.824Z,23.90
2017-12-23T18:31:23.931Z,24.20
2017-12-23T18:33:52.307Z,24.50
2017-12-23T18:36:20.642Z,25.20
2017-12-23T18:38:48.997Z,24.67
2017-12-23T18:41:17.382Z,25.07
2017-12-23T18:43:45.721Z,25.13
2017-12-23T18:46:14.087Z,25.03
2017-12-23T18:48:43.201Z,25.53
2017-12-23T18:51:11.551Z,25.53
2017-12-23T18:53:39.894Z,25.27
2017-12-23T18:56:08.259Z,26.70
2017-12-23T18:58:36.731Z,27.60
2017-12-23T19:01:05.217Z,27.60
2017-12-23T19:03:33.591Z,29.07
2017-12-23T19:06:01.947Z,27.03
2017-12-23T19:08:31.120Z,26.03
2017-12-23T19:10:59.473Z,28.53
2017-12-23T19:13:27.830Z,29.07
2017-12-23T19:15:56.216Z,28.60
2017-12-23T19:18:24.552Z,26.57
2017-12-23T19:20:53.683Z,28.87
2017-12-23T19:23:22.023Z,27.43
2017-12-23T19:25:51.160Z,29.27
2017-12-23T19:28:19.533Z,28.67
2017-12-23T19:30:47.976Z,27.70
2017-12-23T19:33:17.110Z,28.70
2017-12-23T19:35:45.711Z,27.17
2017-12-23T19:38:14.035Z,28.33
2017-12-23T19:40:43.291Z,28.13
2017-12-23T19:43:11.640Z,26.97
2017-12-23T19:45:39.981Z,27.23
2017-12-23T19:48:08.404Z,28.53
2017-12-23T19:50:36.810Z,28.60
2017-12-23T19:53:05.192Z,26.47
2017-12-23T19:55:33.536Z,27.50
2017-12-23T19:58:02.052Z,27.70
2017-12-23T20:00:30.527Z,27.53
2017-12-23T20:02:58.872Z,27.70
2017-12-23T20:05:27.211Z,28.00
2017-12-23T20:07:55.562Z,28.27
2017-12-23T20:10:23.935Z,26.37
2017-12-23T20:12:52.289Z,26.73
2017-12-23T20:15:21.398Z,26.43
2017-12-23T20:17:49.758Z,27.53
2017-12-23T20:20:18.895Z,27.63
2017-12-23T20:22:47.273Z,27.40
2017-12-23T20:25:16.465Z,27.73
2017-12-23T20:27:44.819Z,25.10
2017-12-23T20:30:13.182Z,27.33
2017-12-23T20:32:42.305Z,26.13
2017-12-23T20:35:10.695Z,25.97
2017-12-23T20:37:39.089Z,29.10
2017-12-23T20:40:07.514Z,28.57
2017-12-23T20:42:36.756Z,29.07
2017-12-23T20:45:05.092Z,28.43
2017-12-23T20:47:34.229Z,28.07
2017-12-23T20:50:02.581Z,30.53
2017-12-23T20:52:31.686Z,28.80
2017-12-23T20:55:00.058Z,31.20
2017-12-23T20:57:29.147Z,30.70
2017-12-23T20:59:58.359Z,31.63
2017-12-23T21:02:27.485Z,30.80
2017-12-23T21:04:55.912Z,32.43
2017-12-23T21:07:24.348Z,30.70
2017-12-23T21:09:52.787Z,30.30
2017-12-23T21:12:21.894Z,30.53
2017-12-23T21:14:50.247Z,30.80
2017-12-23T21:17:18.665Z,29.37
2017-12-23T21:19:46.995Z,29.90
2017-12-23T21:22:15.376Z,29.60
2017-12-23T21:24:43.734Z,28.33
2017-12-23T21:27:12.140Z,28.43
2017-12-23T21:29:40.538Z,26.33
2017-12-23T21:32:09.656Z,28.97
2017-12-23T21:34:38.005Z,26.20
2017-12-23T21:37:06.367Z,24.87
2017-12-23T21:39:34.711Z,27.10
2017-12-23T21:42:03.084Z,25.77
2017-12-23T21:44:31.450Z,26.00
2017-12-23T21:46:59.794Z,25.07
2017-12-23T21:49:28.186Z,25.53
2017-12-23T21:51:56.550Z,25.10
2017-12-23T21:54:24.909Z,23.83
2017-12-23T21:56:53.373Z,25.17
2017-12-23T21:59:21.719Z,24.43
2017-12-23T22:01:50.328Z,24.03
2017-12-23T22:04:18.750Z,24.50
2017-12-23T22:06:47.104Z,23.33
2017-12-23T22:09:15.457Z,24.13
2017-12-23T22:11:43.820Z,23.90
2017-12-23T22:14:12.164Z,22.40
2017-12-23T22:16:40.517Z,22.00
2017-12-23T22:19:08.885Z,22.97
2017-12-23T22:21:37.262Z,21.83
2017-12-23T22:24:05.656Z,21.70
2017-12-23T22:26:33.999Z,21.60
2017-12-23T22:29:02.419Z,22.73
2017-12-23T22:31:30.760Z,22.93
2017-12-23T22:33:59.113Z,23.57
2017-12-23T22:36:28.254Z,23.23
2017-12-23T22:38:56.596Z,22.97
2017-12-23T22:41:25.216Z,25.00
2017-12-23T22:43:53.536Z,23.70
2017-12-23T22:46:21.901Z,25.40
2017-12-23T22:48:50.365Z,25.13
2017-12-23T22:51:18.705Z,26.33
2017-12-23T22:53:47.048Z,25.90
2017-12-23T22:56:15.408Z,26.03
2017-12-23T22:58:43.852Z,24.20
2017-12-23T23:01:12.183Z,25.93
2017-12-23T23:03:40.538Z,24.53
2017-12-23T23:06:08.885Z,27.37
2017-12-23T23:08:37.272Z,25.53
2017-12-23T23:11:05.620Z,25.47
2017-12-23T23:13:34.831Z,24.53
2017-12-23T23:16:03.228Z,24.00
2017-12-23T23:18:31.559Z,23.63
2017-12-23T23:20:59.906Z,24.70
2017-12-23T23:23:28.286Z,22.87
2017-12-23T23:25:56.627Z,22.60
2017-12-23T23:28:25.045Z,24.30
2017-12-23T23:30:53.424Z,23.10
2017-12-23T23:33:21.863Z,21.87
2017-12-23T23:35:50.978Z,22.80
2017-12-23T23:38:19.333Z,21.43
2017-12-23T23:40:48.497Z,21.37
2017-12-23T23:43:17.112Z,21.07
2017-12-23T23:45:45.465Z,20.50
2017-12-23T23:48:13.829Z,21.23
2017-12-23T23:50:42.171Z,21.27
2017-12-23T23:53:10.532Z,19.77
2017-12-23T23:55:38.907Z,19.73
2017-12-23T23:58:08.020Z,20.90
